Time;durP1;ratioP1;P1;durP2;ratioP2;P2;SDS_P1;SDS_P2;PMS_P1;PMS_P2;Temp;Humidity;BMP_temperature;BMP_pressure;BME280_temperature;BME280_humidity;BME280_pressure;Samples;Min_cycle;Max_cycle;Signal;HPM_P1;HPM_P2
2022/07/24 00:00:38;;;;;;;7.15;3.60;;;16.60;99.90;;;;;;5138071;27;20498;-77
2022/07/24 00:03:04;;;;;;;8.27;3.53;;;;;;;;;;5121158;27;20402;-77
2022/07/24 00:05:30;;;;;;;6.45;3.67;;;;;;;;;;5138058;27;20442;-77
2022/07/24 00:07:57;;;;;;;6.75;3.42;;;;;;;;;;5118898;27;20407;-76
2022/07/24 00:10:23;;;;;;;6.53;3.83;;;;;;;;;;5117851;27;20398;-76
2022/07/24 00:12:49;;;;;;;5.85;4.00;;;;;;;;;;5134546;27;20859;-76
2022/07/24 00:15:15;;;;;;;6.38;4.00;;;;;;;;;;5114446;28;20419;-76
2022/07/24 00:17:40;;;;;;;5.57;4.20;;;16.30;99.90;;;;;;5114659;28;20788;-76
2022/07/24 00:20:07;;;;;;;6.60;4.20;;;;;;;;;;5097432;28;20440;-76
2022/07/24 00:22:33;;;;;;;7.25;4.60;;;;;;;;;;5113976;28;20490;-76
2022/07/24 00:24:59;;;;;;;5.50;4.30;;;16.30;99.90;;;;;;5153164;27;20457;-77
2022/07/24 00:27:25;;;;;;;7.60;4.73;;;;;;;;;;5120977;27;21005;-77
2022/07/24 00:29:51;;;;;;;8.35;4.80;;;;;;;;;;5156319;27;20396;-77
2022/07/24 00:32:17;;;;;;;5.73;4.37;;;;;;;;;;5155249;27;20417;-77
2022/07/24 00:34:43;;;;;;;6.75;4.70;;;16.40;99.90;;;;;;5144891;27;20964;-77
2022/07/24 00:37:09;;;;;;;7.00;4.70;;;;;;;;;;5113567;28;20491;-77
2022/07/24 00:39:35;;;;;;;9.48;5.20;;;;;;;;;;5079876;28;20404;-77
2022/07/24 00:42:01;;;;;;;6.70;4.60;;;;;;;;;;5113872;28;20715;-77
2022/07/24 00:44:27;;;;;;;7.75;5.03;;;;;;;;;;5114921;28;20400;-77
2022/07/24 00:46:54;;;;;;;8.67;5.17;;;;;;;;;;5113603;28;20859;-77
2022/07/24 00:49:20;;;;;;;6.82;5.40;;;;;;;;;;5114636;28;20400;-77
2022/07/24 00:51:49;;;;;;;6.10;4.70;;;16.00;99.90;;;;;;5113735;28;20543;-77
2022/07/24 00:54:15;;;;;;;8.07;5.65;;;;;;;;;;5129533;27;20429;-77
2022/07/24 00:56:44;;;;;;;10.25;5.97;;;15.90;99.90;;;;;;5133891;27;20436;-77
2022/07/24 00:59:10;;;;;;;7.70;5.68;;;;;;;;;;5134169;27;20826;-76
2022/07/24 01:01:36;;;;;;;8.63;5.60;;;;;;;;;;5116718;27;20423;-76
2022/07/24 01:04:02;;;;;;;9.57;6.10;;;16.00;99.90;;;;;;5133958;27;20398;-76
2022/07/24 01:06:28;;;;;;;8.57;5.78;;;;;;;;;;5133780;27;20460;-76
2022/07/24 01:08:55;;;;;;;8.40;6.03;;;16.00;99.90;;;;;;5117459;27;20494;-76
2022/07/24 01:11:21;;;;;;;7.30;6.10;;;;;;;;;;5134897;27;20390;-76
2022/07/24 01:13:48;;;;;;;7.78;5.53;;;16.10;99.90;;;;;;5133529;27;20496;-76
2022/07/24 01:16:15;;;;;;;8.43;6.25;;;;;;;;;;5134372;27;20500;-76
2022/07/24 01:18:40;;;;;;;7.18;5.95;;;16.30;99.90;;;;;;5133380;27;20395;-76
2022/07/24 01:21:07;;;;;;;9.50;6.53;;;16.10;99.90;;;;;;5133187;27;20401;-76
2022/07/24 01:23:34;;;;;;;12.90;6.65;;;16.10;99.90;;;;;;5133935;27;20431;-76
2022/07/24 01:26:00;;;;;;;8.30;6.90;;;;;;;;;;5116559;27;20394;-76
2022/07/24 01:28:26;;;;;;;10.50;6.75;;;;;;;;;;5133179;27;20406;-76
2022/07/24 01:30:52;;;;;;;10.20;7.25;;;;;;;;;;5133368;27;20780;-76
2022/07/24 01:33:18;;;;;;;8.13;7.13;;;;;;;;;;5115823;27;20475;-76
2022/07/24 01:35:44;;;;;;;8.55;7.28;;;;;;;;;;5133317;27;20427;-76
2022/07/24 01:38:13;;;;;;;11.52;7.60;;;15.90;99.90;;;;;;5132987;27;20394;-77
2022/07/24 01:40:39;;;;;;;11.48;7.28;;;;;;;;;;5133411;27;20395;-77
2022/07/24 01:43:05;;;;;;;10.90;7.53;;;;;;;;;;5132866;27;20402;-76
2022/07/24 01:45:32;;;;;;;10.52;7.93;;;;;;;;;;5132922;27;20452;-76
2022/07/24 01:47:58;;;;;;;11.13;7.72;;;;;;;;;;5132664;27;20490;-76
2022/07/24 01:50:24;;;;;;;13.50;8.10;;;;;;;;;;5132811;27;20433;-76
2022/07/24 01:52:52;;;;;;;11.77;8.65;;;15.70;99.90;;;;;;5132596;27;20847;-76
2022/07/24 01:55:18;;;;;;;12.02;8.73;;;;;;;;;;5132687;27;20402;-77
2022/07/24 01:57:44;;;;;;;13.00;8.38;;;;;;;;;;5132803;27;20395;-76
2022/07/24 02:00:12;;;;;;;13.40;8.80;;;;;;;;;;5115627;27;20410;-76
2022/07/24 02:02:39;;;;;;;11.95;8.70;;;;;;;;;;5132604;27;20407;-75
2022/07/24 02:05:06;;;;;;;15.70;8.88;;;;;;;;;;5132568;27;20402;-76
2022/07/24 02:07:32;;;;;;;16.23;9.13;;;;;;;;;;5132414;27;20395;-76
2022/07/24 02:09:58;;;;;;;13.35;9.73;;;;;;;;;;5116002;27;20430;-76
2022/07/24 02:12:24;;;;;;;14.00;9.03;;;;;;;;;;5115648;27;20422;-76
2022/07/24 02:14:50;;;;;;;11.98;9.15;;;;;;;;;;5115364;27;20395;-76
2022/07/24 02:17:16;;;;;;;13.38;9.30;;;;;;;;;;5115250;27;20395;-76
2022/07/24 02:19:42;;;;;;;12.63;9.40;;;;;;;;;;5132199;27;20395;-77
2022/07/24 02:22:08;;;;;;;11.95;9.20;;;;;;;;;;5132239;27;20391;-77
2022/07/24 02:24:34;;;;;;;10.32;9.18;;;;;;;;;;5132208;27;20478;-77
2022/07/24 02:27:00;;;;;;;14.32;9.50;;;15.30;99.90;;;;;;5132458;27;20394;-77
2022/07/24 02:29:26;;;;;;;12.10;10.00;;;;;;;;;;5132244;27;20967;-77
2022/07/24 02:31:53;;;;;;;13.30;9.95;;;;;;;;;;5131693;27;20402;-77
2022/07/24 02:34:19;;;;;;;11.85;9.80;;;;;;;;;;5132396;27;20475;-77
2022/07/24 02:36:45;;;;;;;11.57;9.68;;;;;;;;;;5132293;27;20482;-77
2022/07/24 02:39:11;;;;;;;11.32;9.35;;;;;;;;;;5115173;27;20397;-77
2022/07/24 02:41:37;;;;;;;11.68;10.30;;;;;;;;;;5131830;27;20394;-77
2022/07/24 02:44:04;;;;;;;13.68;10.25;;;;;;;;;;5114993;27;20411;-77
2022/07/24 02:46:30;;;;;;;13.05;10.18;;;;;;;;;;5114660;27;20406;-76
2022/07/24 02:48:56;;;;;;;11.57;10.07;;;;;;;;;;5131790;27;20909;-76
2022/07/24 02:51:22;;;;;;;15.05;10.32;;;;;;;;;;5132133;27;20390;-76
2022/07/24 02:53:48;;;;;;;16.05;10.82;;;;;;;;;;5132008;27;20555;-76
2022/07/24 02:56:14;;;;;;;14.57;10.55;;;;;;;;;;5114985;28;20781;-76
2022/07/24 02:58:40;;;;;;;13.95;10.52;;;;;;;;;;5132018;28;20885;-76
2022/07/24 03:01:06;;;;;;;12.73;10.57;;;;;;;;;;5097870;28;20866;-76
2022/07/24 03:03:32;;;;;;;11.43;10.10;;;;;;;;;;5131783;28;20417;-77
2022/07/24 03:05:58;;;;;;;13.27;10.43;;;15.40;99.90;;;;;;5131714;28;20489;-77
2022/07/24 03:08:24;;;;;;;12.60;10.47;;;;;;;;;;5114555;28;20486;-77
2022/07/24 03:10:50;;;;;;;12.77;10.60;;;;;;;;;;5131512;28;20399;-77
2022/07/24 03:13:16;;;;;;;13.15;10.52;;;;;;;;;;5131578;28;20497;-77
2022/07/24 03:15:42;;;;;;;12.40;10.27;;;;;;;;;;5114749;28;20951;-77
2022/07/24 03:18:08;;;;;;;13.07;10.88;;;;;;;;;;5131632;28;20878;-77
2022/07/24 03:20:34;;;;;;;14.05;10.32;;;;;;;;;;5114477;28;20394;-77
2022/07/24 03:23:00;;;;;;;12.68;10.65;;;;;;;;;;5131863;28;20746;-77
2022/07/24 03:25:26;;;;;;;12.95;11.10;;;;;;;;;;5097892;28;20434;-77
2022/07/24 03:27:52;;;;;;;12.48;10.25;;;15.30;99.90;;;;;;5114703;28;20398;-77
2022/07/24 03:30:18;;;;;;;13.13;10.65;;;;;;;;;;5131805;28;20900;-77
2022/07/24 03:32:44;;;;;;;12.30;10.60;;;;;;;;;;5131508;28;20430;-77
2022/07/24 03:35:11;;;;;;;13.18;10.48;;;;;;;;;;5131469;28;20417;-77
2022/07/24 03:37:37;;;;;;;14.10;10.43;;;;;;;;;;5102239;28;20403;-77
2022/07/24 03:40:04;;;;;;;12.15;10.50;;;15.10;99.90;;;;;;5094013;28;20891;-77
2022/07/24 03:42:30;;;;;;;12.75;10.82;;;;;;;;;;5110817;28;20411;-77
2022/07/24 03:44:56;;;;;;;13.30;10.85;;;;;;;;;;5114508;28;20408;-77
2022/07/24 03:47:22;;;;;;;12.30;10.30;;;;;;;;;;5114525;28;20414;-76
2022/07/24 03:49:48;;;;;;;12.07;10.20;;;;;;;;;;5114925;28;20396;-76
2022/07/24 03:52:15;;;;;;;11.57;10.38;;;;;;;;;;5097520;28;20503;-76
2022/07/24 03:54:40;;;;;;;13.18;10.40;;;15.30;99.90;;;;;;5114492;28;20910;-77
2022/07/24 03:57:06;;;;;;;12.70;10.18;;;;;;;;;;5114692;28;20396;-77
2022/07/24 03:59:33;;;;;;;12.27;10.05;;;;;;;;;;5097822;28;20392;-77
2022/07/24 04:01:59;;;;;;;11.83;10.57;;;;;;;;;;5114318;28;20911;-77
2022/07/24 04:04:24;;;;;;;15.13;10.88;;;15.00;99.90;;;;;;5114328;28;20392;-77
2022/07/24 04:06:50;;;;;;;11.57;10.13;;;;;;;;;;5114556;28;20444;-77
2022/07/24 04:09:17;;;;;;;15.40;10.00;;;;;;;;;;5114552;28;20408;-77
2022/07/24 04:11:44;;;;;;;11.68;9.48;;;;;;;;;;5114566;28;20401;-77
2022/07/24 04:14:10;;;;;;;12.60;10.20;;;;;;;;;;5097096;28;20451;-77
2022/07/24 04:16:36;;;;;;;12.95;10.00;;;;;;;;;;5114117;28;20396;-77
2022/07/24 04:19:02;;;;;;;13.15;9.80;;;;;;;;;;5114425;28;20388;-77
2022/07/24 04:21:29;;;;;;;11.57;10.37;;;;;;;;;;5114362;28;20400;-77
2022/07/24 04:23:55;;;;;;;11.85;9.98;;;;;;;;;;5097136;28;20400;-77
2022/07/24 04:26:21;;;;;;;12.85;10.35;;;;;;;;;;5113755;28;20406;-76
2022/07/24 04:28:47;;;;;;;12.07;10.00;;;;;;;;;;5126612;27;20387;-75
2022/07/24 04:31:12;;;;;;;13.07;9.98;;;15.50;99.90;;;;;;5134233;27;20471;-75
2022/07/24 04:33:38;;;;;;;12.07;10.03;;;15.60;99.90;;;;;;5117565;27;20754;-75
2022/07/24 04:36:05;;;;;;;12.10;10.35;;;15.60;99.90;;;;;;5117855;27;20798;-75
2022/07/24 04:38:35;;;;;;;12.88;9.60;;;;;;;;;;5121950;27;20494;-75
2022/07/24 04:41:01;;;;;;;19.20;10.25;;;;;;;;;;5134231;27;20397;-75
2022/07/24 04:43:27;;;;;;;15.23;10.20;;;;;;;;;;5134135;27;20430;-75
2022/07/24 04:45:53;;;;;;;12.25;9.73;;;15.60;99.90;;;;;;5134365;27;20398;-75
2022/07/24 04:48:19;;;;;;;13.87;9.63;;;15.50;99.90;;;;;;5116713;27;20411;-75
2022/07/24 04:50:46;;;;;;;15.10;10.20;;;;;;;;;;5122362;27;20463;-75
2022/07/24 04:53:13;;;;;;;13.95;10.63;;;;;;;;;;5113356;28;20424;-75
2022/07/24 04:55:39;;;;;;;12.67;10.40;;;;;;;;;;5113143;28;20423;-75
2022/07/24 04:58:05;;;;;;;11.30;9.68;;;;;;;;;;5113431;28;20411;-75
2022/07/24 05:00:31;;;;;;;12.82;9.63;;;;;;;;;;5131769;27;20884;-75
2022/07/24 05:02:56;;;;;;;11.52;10.00;;;15.60;99.90;;;;;;5123421;27;20421;-75
2022/07/24 05:05:22;;;;;;;11.68;10.20;;;;;;;;;;5116673;27;20466;-75
2022/07/24 05:07:48;;;;;;;11.80;10.45;;;15.70;99.90;;;;;;5121705;27;20841;-75
2022/07/24 05:10:14;;;;;;;13.55;9.95;;;15.70;99.90;;;;;;5113012;28;20432;-76
2022/07/24 05:12:40;;;;;;;14.63;9.90;;;;;;;;;;5112820;28;20420;-76
2022/07/24 05:15:07;;;;;;;10.85;9.75;;;15.70;99.90;;;;;;5143985;27;20400;-76
2022/07/24 05:17:35;;;;;;;11.45;9.63;;;16.20;99.90;;;;;;5121946;27;20443;-76
2022/07/24 05:20:02;;;;;;;12.88;9.70;;;16.00;99.90;;;;;;5095519;28;20433;-76
2022/07/24 05:22:28;;;;;;;13.25;9.40;;;15.90;99.90;;;;;;5112897;28;20404;-76
2022/07/24 05:24:53;;;;;;;12.33;9.57;;;16.40;99.90;;;;;;5112796;28;20414;-76
2022/07/24 05:27:19;;;;;;;14.63;9.35;;;;;;;;;;5124503;27;20413;-75
2022/07/24 05:29:46;;;;;;;13.07;9.63;;;16.40;99.90;;;;;;5112554;28;20420;-75
2022/07/24 05:32:12;;;;;;;12.20;9.48;;;16.50;99.90;;;;;;5113865;28;20431;-75
2022/07/24 05:34:38;;;;;;;12.73;9.90;;;16.40;99.90;;;;;;5119699;27;20896;-75
2022/07/24 05:37:04;;;;;;;14.30;9.70;;;;;;;;;;5116483;27;20482;-75
2022/07/24 05:39:30;;;;;;;12.43;10.30;;;;;;;;;;5114570;27;20419;-75
2022/07/24 05:41:56;;;;;;;14.80;10.38;;;;;;;;;;5115441;27;20475;-76
2022/07/24 05:44:22;;;;;;;13.27;10.43;;;;;;;;;;5126236;27;20400;-75
2022/07/24 05:46:48;;;;;;;12.85;10.05;;;;;;;;;;5123120;27;20430;-75
2022/07/24 05:49:14;;;;;;;12.02;9.93;;;;;;;;;;5129077;27;20447;-75
2022/07/24 05:51:41;;;;;;;14.75;9.82;;;;;;;;;;5128366;27;20427;-75
2022/07/24 05:54:07;;;;;;;14.93;10.07;;;;;;;;;;5123510;27;20427;-75
2022/07/24 05:56:32;;;;;;;13.45;9.93;;;17.20;99.90;;;;;;5143006;27;20890;-75
2022/07/24 05:58:58;;;;;;;12.35;9.65;;;;;;;;;;5153647;27;20397;-75
2022/07/24 06:01:24;;;;;;;14.32;9.90;;;17.40;99.90;;;;;;5153348;27;20497;-75
2022/07/24 06:03:50;;;;;;;12.27;10.05;;;;;;;;;;5133045;27;20449;-75
2022/07/24 06:06:16;;;;;;;11.35;9.75;;;17.50;99.90;;;;;;5131742;27;20935;-75
2022/07/24 06:08:42;;;;;;;13.90;10.20;;;;;;;;;;5119073;27;20400;-75
2022/07/24 06:11:08;;;;;;;12.70;10.43;;;17.90;99.90;;;;;;5112040;28;20404;-76
2022/07/24 06:13:34;;;;;;;13.77;10.57;;;;;;;;;;5114866;27;20467;-76
2022/07/24 06:16:00;;;;;;;13.73;10.95;;;;;;;;;;5131707;27;20394;-75
2022/07/24 06:18:26;;;;;;;13.82;11.02;;;;;;;;;;5111550;28;20475;-75
2022/07/24 06:20:51;;;;;;;15.95;11.35;;;18.40;99.90;;;;;;5123008;27;20766;-75
2022/07/24 06:23:17;;;;;;;15.48;10.85;;;;;;;;;;5132228;27;20398;-75
2022/07/24 06:25:43;;;;;;;13.85;11.23;;;18.40;99.90;;;;;;5115119;27;20428;-75
2022/07/24 06:28:09;;;;;;;13.80;11.48;;;18.50;99.90;;;;;;5131988;27;20394;-76
2022/07/24 06:30:35;;;;;;;14.80;11.27;;;;;;;;;;5147259;27;20405;-75
2022/07/24 06:33:01;;;;;;;15.70;11.85;;;;;;;;;;5153904;27;20420;-75
2022/07/24 06:35:28;;;;;;;14.88;12.30;;;18.90;99.90;;;;;;5153043;27;20480;-74
2022/07/24 06:37:55;;;;;;;15.25;12.35;;;18.80;99.90;;;;;;5143507;27;20899;-76
2022/07/24 06:40:21;;;;;;;16.38;12.05;;;19.00;99.90;;;;;;5111590;28;20755;-74
2022/07/24 06:42:48;;;;;;;15.50;12.52;;;;;;;;;;5111398;28;20428;-75
2022/07/24 06:45:14;;;;;;;17.02;12.82;;;19.40;99.90;;;;;;5120685;27;20434;-76
2022/07/24 06:47:41;;;;;;;14.80;12.57;;;19.60;99.90;;;;;;5117155;28;20481;-76
2022/07/24 06:50:07;;;;;;;15.45;12.05;;;19.70;99.90;;;;;;5111497;28;20396;-76
2022/07/24 06:52:33;;;;;;;15.18;12.30;;;;;;;;;;5094118;28;20420;-75
2022/07/24 06:54:59;;;;;;;16.88;12.18;;;20.10;99.90;;;;;;5111395;28;20407;-75
2022/07/24 06:57:25;;;;;;;15.00;12.10;;;;;;;;;;5118028;28;20765;-75
2022/07/24 06:59:53;;;;;;;17.23;12.40;;;20.20;99.90;;;;;;5111356;28;20434;-75
2022/07/24 07:02:19;;;;;;;13.63;11.93;;;20.20;99.90;;;;;;5123391;27;20490;-76
2022/07/24 07:04:45;;;;;;;14.50;11.27;;;;;;;;;;5132004;27;20415;-76
2022/07/24 07:07:11;;;;;;;14.48;11.00;;;20.50;99.90;;;;;;5122173;27;20424;-75
2022/07/24 07:09:37;;;;;;;13.57;10.10;;;;;;;;;;5123812;27;20398;-74
2022/07/24 07:12:04;;;;;;;13.30;9.65;;;21.00;99.90;;;;;;5131454;28;20391;-76
2022/07/24 07:14:30;;;;;;;10.65;9.52;;;21.20;99.90;;;;;;5127170;28;20412;-76
2022/07/24 07:16:56;;;;;;;13.40;9.18;;;21.50;99.90;;;;;;5129130;28;20764;-76
2022/07/24 07:19:21;;;;;;;10.65;8.32;;;21.80;99.90;;;;;;5118376;27;20427;-76
2022/07/24 07:21:47;;;;;;;10.73;7.60;;;22.40;99.90;;;;;;5135875;27;20481;-76
2022/07/24 07:24:13;;;;;;;11.10;7.93;;;21.90;99.90;;;;;;5135333;27;20918;-76
2022/07/24 07:26:39;;;;;;;10.50;7.60;;;21.90;99.90;;;;;;5145187;27;20418;-76
2022/07/24 07:29:04;;;;;;;8.40;7.23;;;21.90;99.90;;;;;;5128841;27;20424;-76
2022/07/24 07:31:30;;;;;;;9.03;7.00;;;21.80;99.90;;;;;;5114824;28;20944;-75
2022/07/24 07:33:57;;;;;;;9.80;6.65;;;;;;;;;;5114536;28;20424;-75
2022/07/24 07:36:24;;;;;;;9.38;6.80;;;21.70;99.90;;;;;;5136727;27;20908;-76
2022/07/24 07:38:49;;;;;;;9.73;7.07;;;21.90;99.90;;;;;;5134706;27;20426;-76
2022/07/24 07:41:15;;;;;;;9.17;6.80;;;21.80;99.90;;;;;;5120242;27;20818;-74
2022/07/24 07:43:41;;;;;;;8.65;7.05;;;21.70;99.90;;;;;;5122990;27;20423;-75
2022/07/24 07:46:07;;;;;;;8.13;6.65;;;21.80;99.90;;;;;;5100072;27;20916;-75
2022/07/24 07:48:33;;;;;;;8.55;6.65;;;;;;;;;;5117512;27;20463;-75
2022/07/24 07:50:59;;;;;;;9.55;6.97;;;22.50;99.90;;;;;;5123610;27;20417;-75
2022/07/24 07:53:25;;;;;;;10.38;6.75;;;22.60;99.90;;;;;;5128243;27;20414;-75
2022/07/24 07:55:52;;;;;;;9.25;6.30;;;22.70;99.90;;;;;;5125416;27;20538;-76
2022/07/24 07:58:19;;;;;;;7.78;6.10;;;22.70;99.90;;;;;;5124769;27;20418;-76
2022/07/24 08:00:45;;;;;;;7.10;5.90;;;23.10;99.90;;;;;;5127898;27;20412;-76
2022/07/24 08:03:11;;;;;;;7.13;5.63;;;23.20;99.90;;;;;;5113700;28;20912;-77
2022/07/24 08:05:36;;;;;;;8.25;5.70;;;23.60;99.90;;;;;;5118056;27;20425;-77
2022/07/24 08:08:02;;;;;;;8.33;5.77;;;23.70;99.90;;;;;;5119308;27;20410;-76
2022/07/24 08:10:28;;;;;;;7.05;5.68;;;23.40;99.90;;;;;;5128660;27;20414;-77
2022/07/24 08:12:54;;;;;;;9.88;5.85;;;23.50;99.90;;;;;;5113263;27;20423;-77
2022/07/24 08:15:20;;;;;;;9.65;5.13;;;23.60;99.90;;;;;;5116790;27;20405;-76
2022/07/24 08:17:50;;;;;;;7.22;5.10;;;23.50;99.90;;;;;;5119760;27;20419;-76
2022/07/24 08:20:16;;;;;;;6.93;5.20;;;23.50;99.90;;;;;;5113963;27;20532;-77
2022/07/24 08:22:42;;;;;;;9.00;5.28;;;23.50;99.90;;;;;;5107323;27;20506;-78
2022/07/24 08:25:08;;;;;;;6.33;5.03;;;23.60;99.90;;;;;;5113293;28;20465;-77
2022/07/24 08:27:37;;;;;;;7.05;4.88;;;23.50;99.90;;;;;;5121595;27;20418;-77
2022/07/24 08:30:05;;;;;;;6.82;5.35;;;21.90;99.90;;;;;;5122802;27;21002;-78
2022/07/24 08:32:30;;;;;;;8.63;5.20;;;23.80;99.90;;;;;;5117409;27;20469;-78
2022/07/24 08:34:56;;;;;;;7.50;5.27;;;24.00;99.90;;;;;;5116036;27;20398;-78
2022/07/24 08:37:22;;;;;;;9.32;5.53;;;24.10;99.90;;;;;;5114208;27;20446;-78
2022/07/24 08:39:47;;;;;;;7.75;5.20;;;24.10;99.90;;;;;;5113355;27;21162;-78
2022/07/24 08:42:13;;;;;;;8.50;5.47;;;24.20;99.90;;;;;;5116078;27;20917;-78
2022/07/24 08:44:42;;;;;;;6.97;5.30;;;24.40;99.90;;;;;;5135704;27;20421;-78
2022/07/24 08:47:08;;;;;;;7.47;5.13;;;24.40;99.90;;;;;;5133162;27;20501;-77
2022/07/24 08:49:36;;;;;;;6.88;5.10;;;24.10;99.90;;;;;;5112210;27;20403;-77
2022/07/24 08:52:08;;;;;;;8.05;5.25;;;24.40;99.90;;;;;;5116821;27;20395;-77
2022/07/24 08:54:34;;;;;;;7.07;4.68;;;24.20;99.90;;;;;;5134298;27;20542;-77
2022/07/24 08:57:00;;;;;;;7.93;4.47;;;24.30;99.90;;;;;;5137445;27;20892;-78
2022/07/24 08:59:26;;;;;;;6.70;4.95;;;24.60;99.90;;;;;;5135144;27;20447;-79
2022/07/24 09:01:52;;;;;;;5.57;4.40;;;24.60;99.90;;;;;;5112541;28;20424;-78
2022/07/24 09:04:44;;;;;;;6.32;4.60;;;25.00;99.90;;;;;;5121017;27;20415;-77
2022/07/24 09:07:13;;;;;;;8.02;4.60;;;25.00;99.90;;;;;;5154367;27;20397;-77
2022/07/24 09:09:40;;;;;;;7.30;4.28;;;24.50;99.90;;;;;;5154592;27;20397;-77
2022/07/24 09:12:09;;;;;;;6.55;3.92;;;24.70;99.90;;;;;;5137242;27;20401;-77
2022/07/24 09:14:38;;;;;;;6.93;4.15;;;24.80;99.90;;;;;;5148202;27;20395;-77
2022/07/24 09:17:07;;;;;;;6.18;4.20;;;25.00;99.90;;;;;;5120905;27;20392;-77
2022/07/24 09:19:54;;;;;;;7.20;3.80;;;25.10;99.90;;;;;;5112632;28;20453;-77
2022/07/24 09:22:39;;;;;;;5.00;3.47;;;25.40;99.90;;;;;;5103729;27;20433;-77
2022/07/24 09:25:23;;;;;;;5.05;3.50;;;25.70;99.90;;;;;;5133560;27;20391;-77
2022/07/24 09:27:57;;;;;;;5.18;3.25;;;26.10;99.90;;;;;;5132120;27;20467;-77
2022/07/24 09:30:26;;;;;;;4.60;3.07;;;25.70;99.90;;;;;;5133265;27;20397;-77
2022/07/24 09:32:55;;;;;;;5.60;3.20;;;26.10;99.90;;;;;;5102835;28;20531;-77
2022/07/24 09:35:32;;;;;;;5.40;3.00;;;26.50;99.90;;;;;;5114194;27;20392;-77
2022/07/24 09:38:00;;;;;;;5.50;3.05;;;26.70;99.90;;;;;;5123363;27;20413;-78
2022/07/24 09:40:59;;;;;;;3.90;2.60;;;26.80;99.90;;;;;;5112896;28;20952;-78
2022/07/24 09:43:26;;;;;;;4.32;2.80;;;26.50;99.90;;;;;;5122816;27;20416;-78
2022/07/24 09:45:55;;;;;;;4.30;2.80;;;26.40;99.90;;;;;;5112211;28;20399;-78
2022/07/24 09:48:27;;;;;;;4.30;2.58;;;26.90;99.90;;;;;;5112258;28;20427;-78
2022/07/24 09:50:55;;;;;;;5.60;2.80;;;27.10;99.90;;;;;;5097344;28;21021;-78
2022/07/24 09:53:24;;;;;;;4.57;2.70;;;27.10;99.90;;;;;;5115980;27;20418;-78
2022/07/24 09:56:02;;;;;;;6.07;3.00;;;27.00;99.90;;;;;;5110930;27;20420;-78
2022/07/24 09:58:29;;;;;;;5.03;2.73;;;27.00;99.90;;;;;;5115260;27;20424;-77
2022/07/24 10:00:57;;;;;;;4.03;3.00;;;26.90;99.90;;;;;;5132284;27;20894;-78
2022/07/24 10:03:31;;;;;;;5.20;2.65;;;27.20;99.90;;;;;;5132449;27;20758;-78
2022/07/24 10:06:03;;;;;;;3.87;2.57;;;27.20;99.90;;;;;;5118721;27;20420;-78
2022/07/24 10:08:31;;;;;;;4.05;2.65;;;27.00;99.90;;;;;;5113129;27;20454;-77
2022/07/24 10:10:58;;;;;;;4.75;2.63;;;26.70;99.90;;;;;;5111917;28;20748;-77
2022/07/24 10:13:27;;;;;;;4.32;2.60;;;26.90;99.90;;;;;;5123688;27;20925;-77
2022/07/24 10:16:19;;;;;;;5.15;3.13;;;26.70;99.90;;;;;;5133075;27;20449;-77
2022/07/24 10:18:50;;;;;;;5.43;2.92;;;26.60;99.90;;;;;;5104707;28;20396;-77
2022/07/24 10:21:47;;;;;;;5.05;2.90;;;26.70;99.90;;;;;;5112162;28;20736;-76
2022/07/24 10:24:38;;;;;;;5.57;2.80;;;26.60;99.90;;;;;;5103897;28;20408;-76
2022/07/24 10:27:05;;;;;;;4.00;2.90;;;26.20;99.90;;;;;;5094714;28;20400;-76
2022/07/24 10:29:34;;;;;;;4.03;2.78;;;26.20;99.90;;;;;;5095015;28;20774;-76
2022/07/24 10:32:00;;;;;;;4.43;2.72;;;26.30;99.90;;;;;;5119248;27;20457;-75
2022/07/24 10:34:49;;;;;;;6.80;2.80;;;26.50;99.90;;;;;;5114775;27;20424;-75
2022/07/24 10:37:23;;;;;;;14.40;3.47;;;26.70;99.90;;;;;;5126139;27;20475;-75
2022/07/24 10:39:49;;;;;;;5.28;2.60;;;27.10;99.90;;;;;;5131389;27;20903;-76
2022/07/24 10:42:15;;;;;;;4.10;3.10;;;27.00;99.90;;;;;;5125864;27;20414;-75
2022/07/24 10:44:41;;;;;;;3.95;2.60;;;26.90;99.90;;;;;;5096171;27;20410;-75
2022/07/24 10:47:13;;;;;;;5.50;2.70;;;26.90;99.90;;;;;;5125263;27;21078;-75
2022/07/24 10:49:49;;;;;;;3.58;2.63;;;26.80;99.90;;;;;;5113646;27;20453;-75
2022/07/24 10:52:40;;;;;;;5.07;2.67;;;27.20;99.90;;;;;;5156001;27;20756;-76
2022/07/24 10:55:30;;;;;;;4.20;2.60;;;27.50;99.90;;;;;;5118495;27;20898;-76
2022/07/24 10:58:15;;;;;;;4.57;2.65;;;27.60;99.90;;;;;;5127058;27;20409;-76
2022/07/24 11:00:45;;;;;;;4.30;2.60;;;27.40;99.90;;;;;;5139422;27;20529;-76
2022/07/24 11:03:18;;;;;;;4.68;2.70;;;27.50;99.90;;;;;;5128707;27;21118;-76
2022/07/24 11:06:05;;;;;;;6.47;2.60;;;27.50;99.90;;;;;;5133120;27;20406;-77
2022/07/24 11:08:38;;;;;;;3.67;2.40;;;27.80;99.90;;;;;;5112812;27;20443;-77
2022/07/24 11:11:07;;;;;;;4.30;2.70;;;27.90;99.90;;;;;;5135325;27;20414;-77
2022/07/24 11:13:33;;;;;;;4.65;2.80;;;27.90;99.90;;;;;;5125027;27;20943;-77
2022/07/24 11:16:11;;;;;;;4.13;2.80;;;28.00;99.90;;;;;;5112122;28;20481;-76
2022/07/24 11:19:01;;;;;;;4.23;2.60;;;28.10;99.90;;;;;;5132027;27;20469;-76
2022/07/24 11:21:35;;;;;;;4.15;2.80;;;28.10;99.90;;;;;;5132684;27;20416;-77
2022/07/24 11:24:19;;;;;;;4.55;2.60;;;28.10;99.90;;;;;;5111376;28;20446;-76
2022/07/24 11:27:05;;;;;;;4.70;2.80;;;28.10;99.90;;;;;;5120602;27;20404;-76
2022/07/24 11:29:39;;;;;;;5.30;2.77;;;27.90;99.90;;;;;;5133537;27;20410;-77
2022/07/24 11:32:14;;;;;;;5.13;2.88;;;27.80;99.90;;;;;;5131444;28;20403;-77
2022/07/24 11:34:45;;;;;;;5.70;2.80;;;27.90;99.90;;;;;;5115772;28;20523;-76
2022/07/24 11:37:14;;;;;;;5.23;2.70;;;27.90;99.90;;;;;;5115911;28;20414;-75
2022/07/24 11:39:41;;;;;;;4.53;2.63;;;27.90;99.90;;;;;;5120488;27;20539;-76
2022/07/24 11:42:09;;;;;;;5.13;2.60;;;27.80;99.90;;;;;;5125716;27;20499;-76
2022/07/24 11:44:44;;;;;;;5.20;2.80;;;27.60;99.90;;;;;;5126828;27;20811;-76
2022/07/24 11:47:14;;;;;;;4.70;3.10;;;27.90;99.90;;;;;;5141527;27;20433;-76
2022/07/24 11:49:45;;;;;;;6.05;2.80;;;28.00;99.90;;;;;;5127892;27;20894;-76
2022/07/24 11:52:37;;;;;;;4.55;2.83;;;28.00;99.90;;;;;;5109568;28;20459;-76
2022/07/24 11:55:15;;;;;;;5.30;2.58;;;27.90;99.90;;;;;;5122213;27;20448;-76
2022/07/24 11:57:50;;;;;;;4.43;2.88;;;28.10;99.90;;;;;;5120835;27;20423;-76
2022/07/24 12:00:20;;;;;;;5.40;2.80;;;28.30;99.90;;;;;;5106500;28;20429;-76
2022/07/24 12:02:56;;;;;;;4.45;2.72;;;28.80;99.90;;;;;;5122314;28;20421;-76
2022/07/24 12:05:37;;;;;;;4.55;2.60;;;28.70;99.90;;;;;;5139572;27;20898;-76
2022/07/24 12:08:14;;;;;;;5.25;2.88;;;28.70;99.90;;;;;;5133259;27;20420;-76
2022/07/24 12:10:40;;;;;;;3.90;2.60;;;28.60;99.90;;;;;;5155475;27;20472;-75
2022/07/24 12:13:06;;;;;;;5.00;2.70;;;28.80;99.90;;;;;;5113190;27;20539;-75
2022/07/24 12:15:32;;;;;;;6.63;2.55;;;28.20;99.90;;;;;;5115580;27;20411;-76
2022/07/24 12:18:07;;;;;;;4.65;2.55;;;28.70;99.90;;;;;;5120521;27;20972;-76
2022/07/24 12:20:35;;;;;;;4.20;2.50;;;28.80;99.90;;;;;;5094875;27;20511;-76
2022/07/24 12:23:02;;;;;;;4.45;2.40;;;28.80;99.90;;;;;;5143162;27;20406;-76
2022/07/24 12:25:30;;;;;;;4.25;2.60;;;29.40;99.90;;;;;;5121822;27;20439;-76
2022/07/24 12:28:16;;;;;;;4.90;2.60;;;29.40;99.90;;;;;;5129829;27;20430;-76
2022/07/24 12:30:47;;;;;;;4.00;2.67;;;29.60;99.90;;;;;;5115396;27;20417;-76
2022/07/24 12:33:26;;;;;;;6.00;2.50;;;29.70;99.90;;;;;;5132134;27;20422;-76
2022/07/24 12:35:59;;;;;;;5.22;2.63;;;29.80;99.90;;;;;;5128543;27;20413;-76
2022/07/24 12:38:34;;;;;;;4.97;2.53;;;30.20;99.90;;;;;;5133648;27;20402;-76
2022/07/24 12:41:15;;;;;;;4.73;2.60;;;29.80;99.90;;;;;;5119840;27;20418;-76
2022/07/24 12:43:49;;;;;;;4.22;2.60;;;29.50;99.90;;;;;;5134028;27;20429;-77
2022/07/24 12:46:16;;;;;;;5.15;2.53;;;29.50;99.90;;;;;;5116241;27;20424;-76
2022/07/24 12:49:15;;;;;;;4.35;2.60;;;29.40;99.90;;;;;;5113865;27;20803;-77
2022/07/24 12:51:52;;;;;;;5.38;2.60;;;29.00;99.90;;;;;;5112521;28;20453;-76
2022/07/24 12:54:33;;;;;;;4.10;2.70;;;29.50;99.90;;;;;;5117501;27;20451;-76
2022/07/24 12:57:10;;;;;;;5.45;2.55;;;31.60;99.90;;;;;;5133572;27;20421;-75
2022/07/24 12:59:38;;;;;;;8.55;3.00;;;30.20;99.90;;;;;;5133788;27;20402;-76
2022/07/24 13:02:10;;;;;;;3.58;2.40;;;30.30;99.90;;;;;;5133613;27;20406;-76
2022/07/24 13:04:47;;;;;;;4.00;2.65;;;30.10;99.90;;;;;;5134190;27;20494;-76
2022/07/24 13:07:15;;;;;;;5.30;2.78;;;30.10;99.90;;;;;;5134846;27;20403;-75
2022/07/24 13:09:41;;;;;;;6.00;2.60;;;29.70;99.90;;;;;;5133527;27;20454;-74
2022/07/24 13:12:08;;;;;;;4.00;2.50;;;30.20;99.90;;;;;;5133503;27;20394;-73
2022/07/24 13:14:35;;;;;;;4.27;2.63;;;29.50;99.90;;;;;;5130332;27;20436;-74
2022/07/24 13:17:19;;;;;;;4.13;2.47;;;30.00;99.90;;;;;;5119844;27;20427;-74
2022/07/24 13:19:50;;;;;;;4.60;2.70;;;30.10;99.90;;;;;;5129162;27;20415;-74
2022/07/24 13:22:16;;;;;;;5.85;3.08;;;30.10;99.90;;;;;;5128883;27;20467;-75
2022/07/24 13:24:43;;;;;;;4.35;2.70;;;30.10;99.90;;;;;;5112737;28;20797;-74
2022/07/24 13:27:10;;;;;;;3.80;2.55;;;30.30;99.90;;;;;;5115423;27;20424;-75